<?xml version="1.0" encoding="UTF-8" standalone="no" ?>
<gpx xmlns="http://www.topografix.com/GPX/1/1" xmlns:xsi="http://www.w3.org/2001/XMLSchema-instance" xsi:schemaLocation="http://www.topografix.com/GPX/1/1 http://www.topografix.com/GPX/1/1/gpx.xsd" version="1.1" creator="VisuGPX - https://www.visugpx.com">
  <metadata>
    <name>lyon montelimar</name>
    <desc><![CDATA[Lyon montélimard par la via rhona]]></desc>
  </metadata>
  <trk>
    <name><![CDATA[20180415225359-J2UR7]]></name>
    <trkseg>
      <trkpt lat="44.92905" lon="4.88919">
        <ele>128</ele>
        <time>2013-04-24T13:26:20Z</time>
      </trkpt>
      <trkpt lat="44.92944" lon="4.88945">
        <ele>127</ele>
        <time>2013-04-24T13:26:14Z</time>
      </trkpt>
      <trkpt lat="44.92947" lon="4.88947">
        <ele>127</ele>
        <time>2013-04-24T13:26:13Z</time>
      </trkpt>
      <trkpt lat="44.92972" lon="4.8896">
        <ele>126</ele>
        <time>2013-04-24T13:26:06Z</time>
      </trkpt>
      <trkpt lat="44.92997" lon="4.88974">
        <ele>126</ele>
        <time>2013-04-24T13:25:59Z</time>
      </trkpt>
      <trkpt lat="44.93024" lon="4.88988">
        <ele>126</ele>
        <time>2013-04-24T13:25:52Z</time>
      </trkpt>
      <trkpt lat="44.93032" lon="4.88992">
        <ele>126</ele>
        <time>2013-04-24T13:25:50Z</time>
      </trkpt>
      <trkpt lat="44.93045" lon="4.89001">
        <ele>128</ele>
        <time>2013-04-24T13:25:46Z</time>
      </trkpt>
      <trkpt lat="44.93052" lon="4.89009">
        <ele>129</ele>
        <time>2013-04-24T13:25:42Z</time>
      </trkpt>
      <trkpt lat="44.93054" lon="4.89039">
        <ele>129</ele>
        <time>2013-04-24T13:25:35Z</time>
      </trkpt>
      <trkpt lat="44.93052" lon="4.89072">
        <ele>130</ele>
        <time>2013-04-24T13:25:28Z</time>
      </trkpt>
      <trkpt lat="44.93051" lon="4.89121">
        <ele>130</ele>
        <time>2013-04-24T13:25:20Z</time>
      </trkpt>
      <trkpt lat="44.93038" lon="4.89449">
        <ele>131</ele>
        <time>2013-04-24T13:24:18Z</time>
      </trkpt>
      <trkpt lat="44.93041" lon="4.89451">
        <ele>131</ele>
        <time>2013-04-24T13:21:34Z</time>
      </trkpt>
      <trkpt lat="44.93043" lon="4.89451">
        <ele>131</ele>
        <time>2013-04-24T13:21:33Z</time>
      </trkpt>
      <trkpt lat="44.93045" lon="4.89451">
        <ele>131</ele>
        <time>2013-04-24T13:21:32Z</time>
      </trkpt>
      <trkpt lat="44.93046" lon="4.89452">
        <ele>131</ele>
        <time>2013-04-24T13:21:31Z</time>
      </trkpt>
      <trkpt lat="44.9315" lon="4.89492">
        <ele>132</ele>
        <time>2013-04-24T12:03:15Z</time>
      </trkpt>
      <trkpt lat="44.93178" lon="4.89506">
        <ele>132</ele>
        <time>2013-04-24T12:03:07Z</time>
      </trkpt>
      <trkpt lat="44.93205" lon="4.89523">
        <ele>132</ele>
        <time>2013-04-24T12:03:00Z</time>
      </trkpt>
      <trkpt lat="44.93237" lon="4.89543">
        <ele>132</ele>
        <time>2013-04-24T12:02:51Z</time>
      </trkpt>
      <trkpt lat="44.93263" lon="4.89558">
        <ele>132</ele>
        <time>2013-04-24T12:02:44Z</time>
      </trkpt>
      <trkpt lat="44.93266" lon="4.8956">
        <ele>132</ele>
        <time>2013-04-24T12:02:43Z</time>
      </trkpt>
      <trkpt lat="44.93283" lon="4.89571">
        <ele>132</ele>
        <time>2013-04-24T12:02:38Z</time>
      </trkpt>
      <trkpt lat="44.93287" lon="4.89574">
        <ele>132</ele>
        <time>2013-04-24T12:02:37Z</time>
      </trkpt>
      <trkpt lat="44.93312" lon="4.89594">
        <ele>132</ele>
        <time>2013-04-24T12:02:30Z</time>
      </trkpt>
      <trkpt lat="44.93338" lon="4.89617">
        <ele>131</ele>
        <time>2013-04-24T12:02:22Z</time>
      </trkpt>
      <trkpt lat="44.93353" lon="4.89629">
        <ele>131</ele>
        <time>2013-04-24T12:02:17Z</time>
      </trkpt>
      <trkpt lat="44.93367" lon="4.89631">
        <ele>131</ele>
        <time>2013-04-24T12:02:13Z</time>
      </trkpt>
      <trkpt lat="44.93379" lon="4.89613">
        <ele>131</ele>
        <time>2013-04-24T12:02:08Z</time>
      </trkpt>
      <trkpt lat="44.93389" lon="4.89594">
        <ele>131</ele>
        <time>2013-04-24T12:02:03Z</time>
      </trkpt>
      <trkpt lat="44.93402" lon="4.89579">
        <ele>130</ele>
        <time>2013-04-24T12:01:58Z</time>
      </trkpt>
      <trkpt lat="44.93408" lon="4.8957">
        <ele>130</ele>
        <time>2013-04-24T12:01:53Z</time>
      </trkpt>
      <trkpt lat="44.93419" lon="4.89561">
        <ele>130</ele>
        <time>2013-04-24T12:01:49Z</time>
      </trkpt>
      <trkpt lat="44.93439" lon="4.89549">
        <ele>130</ele>
        <time>2013-04-24T12:01:43Z</time>
      </trkpt>
      <trkpt lat="44.93453" lon="4.89539">
        <ele>130</ele>
        <time>2013-04-24T12:01:39Z</time>
      </trkpt>
      <trkpt lat="44.93461" lon="4.89534">
        <ele>130</ele>
        <time>2013-04-24T12:01:37Z</time>
      </trkpt>
      <trkpt lat="44.9348" lon="4.89518">
        <ele>130</ele>
        <time>2013-04-24T12:01:32Z</time>
      </trkpt>
      <trkpt lat="44.93483" lon="4.89513">
        <ele>130</ele>
        <time>2013-04-24T12:01:31Z</time>
      </trkpt>
      <trkpt lat="44.93494" lon="4.89487">
        <ele>130</ele>
        <time>2013-04-24T12:01:26Z</time>
      </trkpt>
      <trkpt lat="44.93498" lon="4.89476">
        <ele>130</ele>
        <time>2013-04-24T12:01:24Z</time>
      </trkpt>
      <trkpt lat="44.93508" lon="4.89451">
        <ele>130</ele>
        <time>2013-04-24T12:01:19Z</time>
      </trkpt>
      <trkpt lat="44.93519" lon="4.89415">
        <ele>131</ele>
        <time>2013-04-24T12:01:12Z</time>
      </trkpt>
      <trkpt lat="44.93524" lon="4.89399">
        <ele>131</ele>
        <time>2013-04-24T12:01:09Z</time>
      </trkpt>
      <trkpt lat="44.93529" lon="4.89383">
        <ele>131</ele>
        <time>2013-04-24T12:01:06Z</time>
      </trkpt>
      <trkpt lat="44.93544" lon="4.89342">
        <ele>131</ele>
        <time>2013-04-24T12:01:00Z</time>
      </trkpt>
      <trkpt lat="44.9354" lon="4.89329">
        <ele>131</ele>
        <time>2013-04-24T12:00:54Z</time>
      </trkpt>
      <trkpt lat="44.93546" lon="4.89314">
        <ele>131</ele>
        <time>2013-04-24T12:00:53Z</time>
      </trkpt>
      <trkpt lat="44.93559" lon="4.89309">
        <ele>131</ele>
        <time>2013-04-24T12:00:50Z</time>
      </trkpt>
      <trkpt lat="44.93594" lon="4.89238">
        <ele>125</ele>
        <time>2013-04-24T12:00:23Z</time>
      </trkpt>
      <trkpt lat="44.93597" lon="4.89224">
        <ele>123</ele>
        <time>2013-04-24T12:00:20Z</time>
      </trkpt>
      <trkpt lat="44.93603" lon="4.89217">
        <ele>122</ele>
        <time>2013-04-24T12:00:17Z</time>
      </trkpt>
      <trkpt lat="44.93609" lon="4.89226">
        <ele>123</ele>
        <time>2013-04-24T12:00:13Z</time>
      </trkpt>
      <trkpt lat="44.93633" lon="4.89259">
        <ele>123</ele>
        <time>2013-04-24T12:00:01Z</time>
      </trkpt>
      <trkpt lat="44.93648" lon="4.89282">
        <ele>123</ele>
        <time>2013-04-24T11:59:55Z</time>
      </trkpt>
      <trkpt lat="44.93659" lon="4.893">
        <ele>123</ele>
        <time>2013-04-24T11:59:50Z</time>
      </trkpt>
      <trkpt lat="44.93668" lon="4.89313">
        <ele>119</ele>
        <time>2013-04-24T11:59:46Z</time>
      </trkpt>
      <trkpt lat="44.93684" lon="4.8933">
        <ele>119</ele>
        <time>2013-04-24T11:59:39Z</time>
      </trkpt>
      <trkpt lat="44.93697" lon="4.89333">
        <ele>118</ele>
        <time>2013-04-24T11:59:35Z</time>
      </trkpt>
      <trkpt lat="44.93721" lon="4.8933">
        <ele>117</ele>
        <time>2013-04-24T11:59:28Z</time>
      </trkpt>
      <trkpt lat="44.93744" lon="4.89324">
        <ele>116</ele>
        <time>2013-04-24T11:59:22Z</time>
      </trkpt>
      <trkpt lat="44.93771" lon="4.89314">
        <ele>114</ele>
        <time>2013-04-24T11:59:15Z</time>
      </trkpt>
      <trkpt lat="44.93804" lon="4.89299">
        <ele>114</ele>
        <time>2013-04-24T11:59:07Z</time>
      </trkpt>
      <trkpt lat="44.93816" lon="4.89294">
        <ele>114</ele>
        <time>2013-04-24T11:59:04Z</time>
      </trkpt>
      <trkpt lat="44.93821" lon="4.89295">
        <ele>114</ele>
        <time>2013-04-24T11:59:03Z</time>
      </trkpt>
      <trkpt lat="44.93851" lon="4.89305">
        <ele>114</ele>
        <time>2013-04-24T11:58:56Z</time>
      </trkpt>
      <trkpt lat="44.93876" lon="4.89312">
        <ele>114</ele>
        <time>2013-04-24T11:58:50Z</time>
      </trkpt>
      <trkpt lat="44.93904" lon="4.89322">
        <ele>114</ele>
        <time>2013-04-24T11:58:43Z</time>
      </trkpt>
      <trkpt lat="44.93908" lon="4.89323">
        <ele>114</ele>
        <time>2013-04-24T11:58:42Z</time>
      </trkpt>
      <trkpt lat="44.93927" lon="4.89329">
        <ele>114</ele>
        <time>2013-04-24T11:58:37Z</time>
      </trkpt>
      <trkpt lat="44.93964" lon="4.8934">
        <ele>114</ele>
        <time>2013-04-24T11:58:28Z</time>
      </trkpt>
      <trkpt lat="44.94003" lon="4.89352">
        <ele>114</ele>
        <time>2013-04-24T11:58:19Z</time>
      </trkpt>
      <trkpt lat="44.94031" lon="4.8936">
        <ele>114</ele>
        <time>2013-04-24T11:58:12Z</time>
      </trkpt>
      <trkpt lat="44.94048" lon="4.89366">
        <ele>114</ele>
        <time>2013-04-24T11:58:08Z</time>
      </trkpt>
      <trkpt lat="44.94052" lon="4.89367">
        <ele>114</ele>
        <time>2013-04-24T11:58:07Z</time>
      </trkpt>
      <trkpt lat="44.94056" lon="4.89369">
        <ele>114</ele>
        <time>2013-04-24T11:58:06Z</time>
      </trkpt>
      <trkpt lat="44.9406" lon="4.8937">
        <ele>114</ele>
        <time>2013-04-24T11:58:05Z</time>
      </trkpt>
      <trkpt lat="44.94063" lon="4.89371">
        <ele>114</ele>
        <time>2013-04-24T11:58:04Z</time>
      </trkpt>
      <trkpt lat="44.94071" lon="4.89369">
        <ele>114</ele>
        <time>2013-04-24T11:58:02Z</time>
      </trkpt>
      <trkpt lat="44.94081" lon="4.89354">
        <ele>114</ele>
        <time>2013-04-24T11:57:58Z</time>
      </trkpt>
      <trkpt lat="44.94084" lon="4.89344">
        <ele>115</ele>
        <time>2013-04-24T11:57:56Z</time>
      </trkpt>
      <trkpt lat="44.94087" lon="4.89341">
        <ele>115</ele>
        <time>2013-04-24T11:57:55Z</time>
      </trkpt>
      <trkpt lat="44.94094" lon="4.89339">
        <ele>115</ele>
        <time>2013-04-24T11:57:53Z</time>
      </trkpt>
      <trkpt lat="44.94104" lon="4.8934">
        <ele>115</ele>
        <time>2013-04-24T11:57:50Z</time>
      </trkpt>
      <trkpt lat="44.94117" lon="4.89351">
        <ele>115</ele>
        <time>2013-04-24T11:57:45Z</time>
      </trkpt>
      <trkpt lat="44.94123" lon="4.89354">
        <ele>115</ele>
        <time>2013-04-24T11:57:43Z</time>
      </trkpt>
      <trkpt lat="44.94146" lon="4.89346">
        <ele>115</ele>
        <time>2013-04-24T11:57:37Z</time>
      </trkpt>
      <trkpt lat="44.94166" lon="4.89338">
        <ele>115</ele>
        <time>2013-04-24T11:57:32Z</time>
      </trkpt>
      <trkpt lat="44.9417" lon="4.89336">
        <ele>115</ele>
        <time>2013-04-24T11:57:31Z</time>
      </trkpt>
      <trkpt lat="44.94174" lon="4.89334">
        <ele>115</ele>
        <time>2013-04-24T11:57:30Z</time>
      </trkpt>
      <trkpt lat="44.94178" lon="4.89332">
        <ele>115</ele>
        <time>2013-04-24T11:57:29Z</time>
      </trkpt>
      <trkpt lat="44.94199" lon="4.89322">
        <ele>115</ele>
        <time>2013-04-24T11:57:24Z</time>
      </trkpt>
      <trkpt lat="44.94231" lon="4.89305">
        <ele>115</ele>
        <time>2013-04-24T11:57:17Z</time>
      </trkpt>
      <trkpt lat="44.94273" lon="4.89282">
        <ele>117</ele>
        <time>2013-04-24T11:57:08Z</time>
      </trkpt>
      <trkpt lat="44.94308" lon="4.89264">
        <ele>117</ele>
        <time>2013-04-24T11:57:01Z</time>
      </trkpt>
      <trkpt lat="44.9434" lon="4.89247">
        <ele>118</ele>
        <time>2013-04-24T11:56:54Z</time>
      </trkpt>
      <trkpt lat="44.94356" lon="4.89236">
        <ele>118</ele>
        <time>2013-04-24T11:56:50Z</time>
      </trkpt>
      <trkpt lat="44.94362" lon="4.89226">
        <ele>118</ele>
        <time>2013-04-24T11:56:48Z</time>
      </trkpt>
      <trkpt lat="44.94368" lon="4.89207">
        <ele>117</ele>
        <time>2013-04-24T11:56:45Z</time>
      </trkpt>
      <trkpt lat="44.94373" lon="4.89159">
        <ele>116</ele>
        <time>2013-04-24T11:56:38Z</time>
      </trkpt>
      <trkpt lat="44.94373" lon="4.89126">
        <ele>116</ele>
        <time>2013-04-24T11:56:33Z</time>
      </trkpt>
      <trkpt lat="44.94373" lon="4.8912">
        <ele>116</ele>
        <time>2013-04-24T11:56:32Z</time>
      </trkpt>
      <trkpt lat="44.94376" lon="4.89099">
        <ele>116</ele>
        <time>2013-04-24T11:56:28Z</time>
      </trkpt>
      <trkpt lat="44.94378" lon="4.89093">
        <ele>116</ele>
        <time>2013-04-24T11:56:27Z</time>
      </trkpt>
      <trkpt lat="44.94391" lon="4.8907">
        <ele>114</ele>
        <time>2013-04-24T11:56:22Z</time>
      </trkpt>
      <trkpt lat="44.94406" lon="4.89036">
        <ele>114</ele>
        <time>2013-04-24T11:56:15Z</time>
      </trkpt>
      <trkpt lat="44.94422" lon="4.88999">
        <ele>113</ele>
        <time>2013-04-24T11:56:07Z</time>
      </trkpt>
      <trkpt lat="44.94424" lon="4.88994">
        <ele>113</ele>
        <time>2013-04-24T11:56:06Z</time>
      </trkpt>
      <trkpt lat="44.94432" lon="4.88965">
        <ele>113</ele>
        <time>2013-04-24T11:56:01Z</time>
      </trkpt>
      <trkpt lat="44.94434" lon="4.88953">
        <ele>113</ele>
        <time>2013-04-24T11:55:59Z</time>
      </trkpt>
      <trkpt lat="44.94439" lon="4.88933">
        <ele>113</ele>
        <time>2013-04-24T11:55:56Z</time>
      </trkpt>
      <trkpt lat="44.94445" lon="4.88921">
        <ele>113</ele>
        <time>2013-04-24T11:55:54Z</time>
      </trkpt>
      <trkpt lat="44.94454" lon="4.88905">
        <ele>113</ele>
        <time>2013-04-24T11:55:51Z</time>
      </trkpt>
      <trkpt lat="44.94468" lon="4.88886">
        <ele>113</ele>
        <time>2013-04-24T11:55:47Z</time>
      </trkpt>
      <trkpt lat="44.94471" lon="4.88881">
        <ele>113</ele>
        <time>2013-04-24T11:55:46Z</time>
      </trkpt>
      <trkpt lat="44.94492" lon="4.88841">
        <ele>114</ele>
        <time>2013-04-24T11:55:38Z</time>
      </trkpt>
      <trkpt lat="44.94503" lon="4.88816">
        <ele>116</ele>
        <time>2013-04-24T11:55:32Z</time>
      </trkpt>
      <trkpt lat="44.94509" lon="4.888">
        <ele>116</ele>
        <time>2013-04-24T11:55:28Z</time>
      </trkpt>
      <trkpt lat="44.94514" lon="4.88788">
        <ele>116</ele>
        <time>2013-04-24T11:55:25Z</time>
      </trkpt>
      <trkpt lat="44.94523" lon="4.88762">
        <ele>116</ele>
        <time>2013-04-24T11:55:19Z</time>
      </trkpt>
      <trkpt lat="44.94532" lon="4.88741">
        <ele>115</ele>
        <time>2013-04-24T11:55:13Z</time>
      </trkpt>
      <trkpt lat="44.94539" lon="4.88725">
        <ele>115</ele>
        <time>2013-04-24T11:55:10Z</time>
      </trkpt>
      <trkpt lat="44.94538" lon="4.88717">
        <ele>115</ele>
        <time>2013-04-24T11:55:09Z</time>
      </trkpt>
      <trkpt lat="44.94524" lon="4.88695">
        <ele>115</ele>
        <time>2013-04-24T11:54:14Z</time>
      </trkpt>
      <trkpt lat="44.94514" lon="4.88702">
        <ele>115</ele>
        <time>2013-04-24T11:54:11Z</time>
      </trkpt>
      <trkpt lat="44.94497" lon="4.88698">
        <ele>114</ele>
        <time>2013-04-24T11:54:07Z</time>
      </trkpt>
      <trkpt lat="44.94494" lon="4.88694">
        <ele>114</ele>
        <time>2013-04-24T11:54:06Z</time>
      </trkpt>
      <trkpt lat="44.94488" lon="4.88681">
        <ele>114</ele>
        <time>2013-04-24T11:54:03Z</time>
      </trkpt>
      <trkpt lat="44.94487" lon="4.8866">
        <ele>114</ele>
        <time>2013-04-24T11:53:58Z</time>
      </trkpt>
      <trkpt lat="44.94487" lon="4.88656">
        <ele>114</ele>
        <time>2013-04-24T11:53:48Z</time>
      </trkpt>
      <trkpt lat="44.94487" lon="4.88656">
        <ele>114</ele>
        <time>2013-04-24T11:53:34Z</time>
      </trkpt>
      <trkpt lat="44.94487" lon="4.88654">
        <ele>114</ele>
        <time>2013-04-24T11:53:30Z</time>
      </trkpt>
      <trkpt lat="44.94483" lon="4.88638">
        <ele>114</ele>
        <time>2013-04-24T11:53:24Z</time>
      </trkpt>
      <trkpt lat="44.94469" lon="4.88616">
        <ele>114</ele>
        <time>2013-04-24T11:53:17Z</time>
      </trkpt>
      <trkpt lat="44.94451" lon="4.8859">
        <ele>114</ele>
        <time>2013-04-24T11:53:09Z</time>
      </trkpt>
      <trkpt lat="44.94431" lon="4.88562">
        <ele>113</ele>
        <time>2013-04-24T11:53:01Z</time>
      </trkpt>
      <trkpt lat="44.94419" lon="4.88551">
        <ele>113</ele>
        <time>2013-04-24T11:52:57Z</time>
      </trkpt>
      <trkpt lat="44.94401" lon="4.88553">
        <ele>111</ele>
        <time>2013-04-24T11:52:51Z</time>
      </trkpt>
      <trkpt lat="44.94391" lon="4.88556">
        <ele>110</ele>
        <time>2013-04-24T11:52:13Z</time>
      </trkpt>
      <trkpt lat="44.94391" lon="4.88556">
        <ele>110</ele>
        <time>2013-04-24T11:52:13Z</time>
      </trkpt>
      <trkpt lat="44.94388" lon="4.88545">
        <ele>110</ele>
        <time>2013-04-24T11:51:42Z</time>
      </trkpt>
      <trkpt lat="44.94388" lon="4.88537">
        <ele>110</ele>
        <time>2013-04-24T11:51:40Z</time>
      </trkpt>
      <trkpt lat="44.94393" lon="4.88531">
        <ele>110</ele>
        <time>2013-04-24T11:51:38Z</time>
      </trkpt>
      <trkpt lat="44.94419" lon="4.88515">
        <ele>112</ele>
        <time>2013-04-24T11:51:30Z</time>
      </trkpt>
      <trkpt lat="44.94459" lon="4.88493">
        <ele>111</ele>
        <time>2013-04-24T11:51:21Z</time>
      </trkpt>
      <trkpt lat="44.94497" lon="4.88473">
        <ele>111</ele>
        <time>2013-04-24T11:51:13Z</time>
      </trkpt>
      <trkpt lat="44.94535" lon="4.88455">
        <ele>110</ele>
        <time>2013-04-24T11:51:05Z</time>
      </trkpt>
      <trkpt lat="44.94565" lon="4.88441">
        <ele>110</ele>
        <time>2013-04-24T11:50:59Z</time>
      </trkpt>
      <trkpt lat="44.9457" lon="4.88439">
        <ele>110</ele>
        <time>2013-04-24T11:50:58Z</time>
      </trkpt>
      <trkpt lat="44.94604" lon="4.88424">
        <ele>110</ele>
        <time>2013-04-24T11:50:51Z</time>
      </trkpt>
      <trkpt lat="44.94638" lon="4.88409">
        <ele>109</ele>
        <time>2013-04-24T11:50:44Z</time>
      </trkpt>
      <trkpt lat="44.94677" lon="4.88392">
        <ele>108</ele>
        <time>2013-04-24T11:50:36Z</time>
      </trkpt>
      <trkpt lat="44.94715" lon="4.88376">
        <ele>108</ele>
        <time>2013-04-24T11:50:28Z</time>
      </trkpt>
      <trkpt lat="44.94754" lon="4.8836">
        <ele>109</ele>
        <time>2013-04-24T11:50:20Z</time>
      </trkpt>
      <trkpt lat="44.94787" lon="4.88344">
        <ele>109</ele>
        <time>2013-04-24T11:50:13Z</time>
      </trkpt>
      <trkpt lat="44.94796" lon="4.88341">
        <ele>109</ele>
        <time>2013-04-24T11:50:11Z</time>
      </trkpt>
      <trkpt lat="44.94838" lon="4.88321">
        <ele>108</ele>
        <time>2013-04-24T11:50:02Z</time>
      </trkpt>
      <trkpt lat="44.9488" lon="4.88302">
        <ele>109</ele>
        <time>2013-04-24T11:49:53Z</time>
      </trkpt>
      <trkpt lat="44.94885" lon="4.883">
        <ele>109</ele>
        <time>2013-04-24T11:49:52Z</time>
      </trkpt>
      <trkpt lat="44.94914" lon="4.88287">
        <ele>108</ele>
        <time>2013-04-24T11:49:45Z</time>
      </trkpt>
      <trkpt lat="44.94944" lon="4.88274">
        <ele>110</ele>
        <time>2013-04-24T11:49:38Z</time>
      </trkpt>
      <trkpt lat="44.94978" lon="4.88259">
        <ele>110</ele>
        <time>2013-04-24T11:49:30Z</time>
      </trkpt>
      <trkpt lat="44.9501" lon="4.88245">
        <ele>110</ele>
        <time>2013-04-24T11:49:21Z</time>
      </trkpt>
      <trkpt lat="44.95037" lon="4.88233">
        <ele>110</ele>
        <time>2013-04-24T11:49:14Z</time>
      </trkpt>
      <trkpt lat="44.95042" lon="4.88231">
        <ele>110</ele>
        <time>2013-04-24T11:49:13Z</time>
      </trkpt>
      <trkpt lat="44.95079" lon="4.88215">
        <ele>110</ele>
        <time>2013-04-24T11:49:05Z</time>
      </trkpt>
      <trkpt lat="44.95116" lon="4.88199">
        <ele>111</ele>
        <time>2013-04-24T11:48:57Z</time>
      </trkpt>
      <trkpt lat="44.95156" lon="4.88181">
        <ele>110</ele>
        <time>2013-04-24T11:48:48Z</time>
      </trkpt>
      <trkpt lat="44.95196" lon="4.88163">
        <ele>109</ele>
        <time>2013-04-24T11:48:39Z</time>
      </trkpt>
      <trkpt lat="44.95245" lon="4.88141">
        <ele>109</ele>
        <time>2013-04-24T11:48:28Z</time>
      </trkpt>
      <trkpt lat="44.95289" lon="4.88122">
        <ele>111</ele>
        <time>2013-04-24T11:48:18Z</time>
      </trkpt>
      <trkpt lat="44.95311" lon="4.88112">
        <ele>111</ele>
        <time>2013-04-24T11:48:13Z</time>
      </trkpt>
      <trkpt lat="44.95319" lon="4.88109">
        <ele>111</ele>
        <time>2013-04-24T11:48:11Z</time>
      </trkpt>
      <trkpt lat="44.95359" lon="4.8809">
        <ele>112</ele>
        <time>2013-04-24T11:48:02Z</time>
      </trkpt>
      <trkpt lat="44.95399" lon="4.88072">
        <ele>109</ele>
        <time>2013-04-24T11:47:53Z</time>
      </trkpt>
      <trkpt lat="44.95413" lon="4.88067">
        <ele>109</ele>
        <time>2013-04-24T11:47:50Z</time>
      </trkpt>
      <trkpt lat="44.95431" lon="4.88059">
        <ele>110</ele>
        <time>2013-04-24T11:47:46Z</time>
      </trkpt>
      <trkpt lat="44.95471" lon="4.88041">
        <ele>110</ele>
        <time>2013-04-24T11:47:37Z</time>
      </trkpt>
      <trkpt lat="44.95503" lon="4.88027">
        <ele>110</ele>
        <time>2013-04-24T11:47:30Z</time>
      </trkpt>
      <trkpt lat="44.95544" lon="4.88012">
        <ele>111</ele>
        <time>2013-04-24T11:47:21Z</time>
      </trkpt>
      <trkpt lat="44.95638" lon="4.87977">
        <ele>109</ele>
        <time>2013-04-24T11:46:41Z</time>
      </trkpt>
      <trkpt lat="44.95666" lon="4.87965">
        <ele>109</ele>
        <time>2013-04-24T11:46:34Z</time>
      </trkpt>
      <trkpt lat="44.95688" lon="4.87956">
        <ele>109</ele>
        <time>2013-04-24T11:46:28Z</time>
      </trkpt>
      <trkpt lat="44.95716" lon="4.8794">
        <ele>109</ele>
        <time>2013-04-24T11:46:20Z</time>
      </trkpt>
      <trkpt lat="44.95728" lon="4.87934">
        <ele>109</ele>
        <time>2013-04-24T11:46:17Z</time>
      </trkpt>
      <trkpt lat="44.95745" lon="4.87924">
        <ele>109</ele>
        <time>2013-04-24T11:46:13Z</time>
      </trkpt>
      <trkpt lat="44.95768" lon="4.8791">
        <ele>109</ele>
        <time>2013-04-24T11:46:07Z</time>
      </trkpt>
      <trkpt lat="44.958" lon="4.87888">
        <ele>110</ele>
        <time>2013-04-24T11:45:58Z</time>
      </trkpt>
      <trkpt lat="44.95836" lon="4.87864">
        <ele>111</ele>
        <time>2013-04-24T11:45:50Z</time>
      </trkpt>
      <trkpt lat="44.95875" lon="4.87835">
        <ele>111</ele>
        <time>2013-04-24T11:45:41Z</time>
      </trkpt>
      <trkpt lat="44.95895" lon="4.8782">
        <ele>110</ele>
        <time>2013-04-24T11:45:36Z</time>
      </trkpt>
      <trkpt lat="44.95898" lon="4.87817">
        <ele>110</ele>
        <time>2013-04-24T11:45:35Z</time>
      </trkpt>
      <trkpt lat="44.95912" lon="4.87806">
        <ele>110</ele>
        <time>2013-04-24T11:45:05Z</time>
      </trkpt>
      <trkpt lat="44.95916" lon="4.87803">
        <ele>110</ele>
        <time>2013-04-24T11:45:01Z</time>
      </trkpt>
      <trkpt lat="44.95919" lon="4.87801">
        <ele>111</ele>
        <time>2013-04-24T11:44:58Z</time>
      </trkpt>
      <trkpt lat="44.95919" lon="4.87801">
        <ele>111</ele>
        <time>2013-04-24T11:44:50Z</time>
      </trkpt>
      <trkpt lat="44.95919" lon="4.87801">
        <ele>111</ele>
        <time>2013-04-24T11:44:49Z</time>
      </trkpt>
      <trkpt lat="44.95919" lon="4.87801">
        <ele>111</ele>
        <time>2013-04-24T11:44:48Z</time>
      </trkpt>
      <trkpt lat="44.95919" lon="4.87801">
        <ele>111</ele>
        <time>2013-04-24T11:44:47Z</time>
      </trkpt>
      <trkpt lat="44.95918" lon="4.87802">
        <ele>111</ele>
        <time>2013-04-24T11:44:46Z</time>
      </trkpt>
      <trkpt lat="44.95927" lon="4.87794">
        <ele>111</ele>
        <time>2013-04-24T11:44:43Z</time>
      </trkpt>
      <trkpt lat="44.95932" lon="4.8779">
        <ele>111</ele>
        <time>2013-04-24T11:44:42Z</time>
      </trkpt>
      <trkpt lat="44.95948" lon="4.87781">
        <ele>111</ele>
        <time>2013-04-24T11:44:39Z</time>
      </trkpt>
      <trkpt lat="44.95981" lon="4.87756">
        <ele>111</ele>
        <time>2013-04-24T11:44:32Z</time>
      </trkpt>
      <trkpt lat="44.96005" lon="4.87738">
        <ele>111</ele>
        <time>2013-04-24T11:44:25Z</time>
      </trkpt>
      <trkpt lat="44.96011" lon="4.87732">
        <ele>112</ele>
        <time>2013-04-24T11:44:23Z</time>
      </trkpt>
      <trkpt lat="44.96017" lon="4.87726">
        <ele>112</ele>
        <time>2013-04-24T11:44:18Z</time>
      </trkpt>
      <trkpt lat="44.96017" lon="4.87726">
        <ele>112</ele>
        <time>2013-04-24T11:44:05Z</time>
      </trkpt>
      <trkpt lat="44.96017" lon="4.87725">
        <ele>112</ele>
        <time>2013-04-24T11:44:00Z</time>
      </trkpt>
      <trkpt lat="44.96027" lon="4.87715">
        <ele>112</ele>
        <time>2013-04-24T11:43:54Z</time>
      </trkpt>
      <trkpt lat="44.96044" lon="4.87693">
        <ele>112</ele>
        <time>2013-04-24T11:43:47Z</time>
      </trkpt>
      <trkpt lat="44.9606" lon="4.87674">
        <ele>112</ele>
        <time>2013-04-24T11:43:42Z</time>
      </trkpt>
      <trkpt lat="44.96066" lon="4.87666">
        <ele>111</ele>
        <time>2013-04-24T11:43:40Z</time>
      </trkpt>
      <trkpt lat="44.96097" lon="4.87628">
        <ele>112</ele>
        <time>2013-04-24T11:43:31Z</time>
      </trkpt>
      <trkpt lat="44.96123" lon="4.87593">
        <ele>112</ele>
        <time>2013-04-24T11:43:23Z</time>
      </trkpt>
      <trkpt lat="44.96129" lon="4.87584">
        <ele>112</ele>
        <time>2013-04-24T11:43:21Z</time>
      </trkpt>
      <trkpt lat="44.96141" lon="4.87566">
        <ele>110</ele>
        <time>2013-04-24T11:43:17Z</time>
      </trkpt>
      <trkpt lat="44.96162" lon="4.87534">
        <ele>110</ele>
        <time>2013-04-24T11:43:10Z</time>
      </trkpt>
      <trkpt lat="44.96189" lon="4.87496">
        <ele>109</ele>
        <time>2013-04-24T11:43:01Z</time>
      </trkpt>
      <trkpt lat="44.96208" lon="4.87467">
        <ele>110</ele>
        <time>2013-04-24T11:42:54Z</time>
      </trkpt>
      <trkpt lat="44.96219" lon="4.87452">
        <ele>110</ele>
        <time>2013-04-24T11:42:39Z</time>
      </trkpt>
      <trkpt lat="44.96219" lon="4.87452">
        <ele>110</ele>
        <time>2013-04-24T11:42:26Z</time>
      </trkpt>
      <trkpt lat="44.96219" lon="4.87452">
        <ele>110</ele>
        <time>2013-04-24T11:42:13Z</time>
      </trkpt>
      <trkpt lat="44.96219" lon="4.87452">
        <ele>110</ele>
        <time>2013-04-24T11:42:01Z</time>
      </trkpt>
      <trkpt lat="44.96219" lon="4.87452">
        <ele>110</ele>
        <time>2013-04-24T11:41:46Z</time>
      </trkpt>
      <trkpt lat="44.96219" lon="4.87452">
        <ele>110</ele>
        <time>2013-04-24T11:41:31Z</time>
      </trkpt>
      <trkpt lat="44.96219" lon="4.87452">
        <ele>110</ele>
        <time>2013-04-24T11:41:22Z</time>
      </trkpt>
      <trkpt lat="44.96219" lon="4.87452">
        <ele>110</ele>
        <time>2013-04-24T11:41:21Z</time>
      </trkpt>
      <trkpt lat="44.96225" lon="4.8745">
        <ele>111</ele>
        <time>2013-04-24T11:41:18Z</time>
      </trkpt>
      <trkpt lat="44.96239" lon="4.87444">
        <ele>111</ele>
        <time>2013-04-24T11:41:14Z</time>
      </trkpt>
      <trkpt lat="44.96243" lon="4.87438">
        <ele>111</ele>
        <time>2013-04-24T11:41:10Z</time>
      </trkpt>
      <trkpt lat="44.96243" lon="4.87438">
        <ele>111</ele>
        <time>2013-04-24T11:41:09Z</time>
      </trkpt>
      <trkpt lat="44.96243" lon="4.87438">
        <ele>111</ele>
        <time>2013-04-24T11:40:52Z</time>
      </trkpt>
      <trkpt lat="44.96244" lon="4.87436">
        <ele>111</ele>
        <time>2013-04-24T11:40:47Z</time>
      </trkpt>
      <trkpt lat="44.96254" lon="4.87422">
        <ele>113</ele>
        <time>2013-04-24T11:40:36Z</time>
      </trkpt>
      <trkpt lat="44.96264" lon="4.87408">
        <ele>113</ele>
        <time>2013-04-24T11:40:30Z</time>
      </trkpt>
      <trkpt lat="44.96269" lon="4.87401">
        <ele>113</ele>
        <time>2013-04-24T11:40:28Z</time>
      </trkpt>
      <trkpt lat="44.9627" lon="4.8739">
        <ele>113</ele>
        <time>2013-04-24T11:40:26Z</time>
      </trkpt>
      <trkpt lat="44.96269" lon="4.87385">
        <ele>113</ele>
        <time>2013-04-24T11:40:25Z</time>
      </trkpt>
      <trkpt lat="44.96264" lon="4.8738">
        <ele>113</ele>
        <time>2013-04-24T11:40:24Z</time>
      </trkpt>
      <trkpt lat="44.96244" lon="4.8735">
        <ele>112</ele>
        <time>2013-04-24T11:40:18Z</time>
      </trkpt>
      <trkpt lat="44.96234" lon="4.87333">
        <ele>112</ele>
        <time>2013-04-24T11:40:14Z</time>
      </trkpt>
      <trkpt lat="44.9624" lon="4.87309">
        <ele>112</ele>
        <time>2013-04-24T11:40:09Z</time>
      </trkpt>
      <trkpt lat="44.96258" lon="4.87281">
        <ele>114</ele>
        <time>2013-04-24T11:40:02Z</time>
      </trkpt>
      <trkpt lat="44.96284" lon="4.8724">
        <ele>115</ele>
        <time>2013-04-24T11:39:53Z</time>
      </trkpt>
      <trkpt lat="44.96297" lon="4.87221">
        <ele>115</ele>
        <time>2013-04-24T11:39:49Z</time>
      </trkpt>
      <trkpt lat="44.96309" lon="4.87203">
        <ele>115</ele>
        <time>2013-04-24T11:39:45Z</time>
      </trkpt>
      <trkpt lat="44.96322" lon="4.87185">
        <ele>114</ele>
        <time>2013-04-24T11:39:41Z</time>
      </trkpt>
      <trkpt lat="44.96331" lon="4.87173">
        <ele>114</ele>
        <time>2013-04-24T11:39:38Z</time>
      </trkpt>
      <trkpt lat="44.96335" lon="4.87169">
        <ele>114</ele>
        <time>2013-04-24T11:39:37Z</time>
      </trkpt>
      <trkpt lat="44.96347" lon="4.87156">
        <ele>115</ele>
        <time>2013-04-24T11:39:34Z</time>
      </trkpt>
      <trkpt lat="44.96356" lon="4.87152">
        <ele>115</ele>
        <time>2013-04-24T11:39:32Z</time>
      </trkpt>
      <trkpt lat="44.96368" lon="4.87153">
        <ele>115</ele>
        <time>2013-04-24T11:39:29Z</time>
      </trkpt>
      <trkpt lat="44.96388" lon="4.87154">
        <ele>115</ele>
        <time>2013-04-24T11:39:24Z</time>
      </trkpt>
      <trkpt lat="44.96392" lon="4.87153">
        <ele>115</ele>
        <time>2013-04-24T11:39:23Z</time>
      </trkpt>
      <trkpt lat="44.96408" lon="4.87147">
        <ele>115</ele>
        <time>2013-04-24T11:39:19Z</time>
      </trkpt>
      <trkpt lat="44.9643" lon="4.87123">
        <ele>116</ele>
        <time>2013-04-24T11:39:12Z</time>
      </trkpt>
      <trkpt lat="44.96441" lon="4.87113">
        <ele>116</ele>
        <time>2013-04-24T11:39:08Z</time>
      </trkpt>
      <trkpt lat="44.96448" lon="4.87115">
        <ele>116</ele>
        <time>2013-04-24T11:38:48Z</time>
      </trkpt>
      <trkpt lat="44.96458" lon="4.87127">
        <ele>116</ele>
        <time>2013-04-24T11:38:42Z</time>
      </trkpt>
      <trkpt lat="44.96472" lon="4.8715">
        <ele>116</ele>
        <time>2013-04-24T11:38:36Z</time>
      </trkpt>
      <trkpt lat="44.9649" lon="4.87178">
        <ele>118</ele>
        <time>2013-04-24T11:38:29Z</time>
      </trkpt>
      <trkpt lat="44.96503" lon="4.87213">
        <ele>119</ele>
        <time>2013-04-24T11:38:22Z</time>
      </trkpt>
      <trkpt lat="44.96509" lon="4.87236">
        <ele>119</ele>
        <time>2013-04-24T11:38:18Z</time>
      </trkpt>
      <trkpt lat="44.96511" lon="4.87242">
        <ele>119</ele>
        <time>2013-04-24T11:38:17Z</time>
      </trkpt>
      <trkpt lat="44.96514" lon="4.87247">
        <ele>119</ele>
        <time>2013-04-24T11:38:16Z</time>
      </trkpt>
      <trkpt lat="44.96522" lon="4.87262">
        <ele>119</ele>
        <time>2013-04-24T11:38:13Z</time>
      </trkpt>
      <trkpt lat="44.96535" lon="4.8727">
        <ele>119</ele>
        <time>2013-04-24T11:38:10Z</time>
      </trkpt>
      <trkpt lat="44.96545" lon="4.87276">
        <ele>119</ele>
        <time>2013-04-24T11:38:08Z</time>
      </trkpt>
      <trkpt lat="44.96555" lon="4.87283">
        <ele>119</ele>
        <time>2013-04-24T11:38:06Z</time>
      </trkpt>
      <trkpt lat="44.96572" lon="4.87286">
        <ele>119</ele>
        <time>2013-04-24T11:38:03Z</time>
      </trkpt>
      <trkpt lat="44.96592" lon="4.87288">
        <ele>119</ele>
        <time>2013-04-24T11:37:59Z</time>
      </trkpt>
      <trkpt lat="44.96608" lon="4.87305">
        <ele>119</ele>
        <time>2013-04-24T11:37:55Z</time>
      </trkpt>
      <trkpt lat="44.96627" lon="4.87324">
        <ele>119</ele>
        <time>2013-04-24T11:37:51Z</time>
      </trkpt>
      <trkpt lat="44.96631" lon="4.8733">
        <ele>119</ele>
        <time>2013-04-24T11:37:50Z</time>
      </trkpt>
      <trkpt lat="44.96645" lon="4.87343">
        <ele>118</ele>
        <time>2013-04-24T11:37:47Z</time>
      </trkpt>
      <trkpt lat="44.96654" lon="4.87351">
        <ele>118</ele>
        <time>2013-04-24T11:37:45Z</time>
      </trkpt>
      <trkpt lat="44.96688" lon="4.87385">
        <ele>119</ele>
        <time>2013-04-24T11:37:38Z</time>
      </trkpt>
      <trkpt lat="44.96703" lon="4.87412">
        <ele>119</ele>
        <time>2013-04-24T11:37:34Z</time>
      </trkpt>
      <trkpt lat="44.96707" lon="4.87419">
        <ele>119</ele>
        <time>2013-04-24T11:37:33Z</time>
      </trkpt>
      <trkpt lat="44.96712" lon="4.87426">
        <ele>119</ele>
        <time>2013-04-24T11:37:32Z</time>
      </trkpt>
      <trkpt lat="44.96717" lon="4.87433">
        <ele>119</ele>
        <time>2013-04-24T11:37:31Z</time>
      </trkpt>
      <trkpt lat="44.96723" lon="4.87439">
        <ele>119</ele>
        <time>2013-04-24T11:37:30Z</time>
      </trkpt>
      <trkpt lat="44.96728" lon="4.87444">
        <ele>119</ele>
        <time>2013-04-24T11:37:29Z</time>
      </trkpt>
      <trkpt lat="44.96754" lon="4.87455">
        <ele>121</ele>
        <time>2013-04-24T11:37:25Z</time>
      </trkpt>
      <trkpt lat="44.96773" lon="4.87462">
        <ele>121</ele>
        <time>2013-04-24T11:37:22Z</time>
      </trkpt>
      <trkpt lat="44.96827" lon="4.87467">
        <ele>123</ele>
        <time>2013-04-24T11:37:12Z</time>
      </trkpt>
      <trkpt lat="44.96871" lon="4.87471">
        <ele>125</ele>
        <time>2013-04-24T11:37:03Z</time>
      </trkpt>
      <trkpt lat="44.9691" lon="4.87473">
        <ele>126</ele>
        <time>2013-04-24T11:36:55Z</time>
      </trkpt>
      <trkpt lat="44.96943" lon="4.87476">
        <ele>127</ele>
        <time>2013-04-24T11:36:48Z</time>
      </trkpt>
      <trkpt lat="44.96968" lon="4.87479">
        <ele>127</ele>
        <time>2013-04-24T11:36:43Z</time>
      </trkpt>
      <trkpt lat="44.96978" lon="4.87479">
        <ele>127</ele>
        <time>2013-04-24T11:36:41Z</time>
      </trkpt>
      <trkpt lat="44.96993" lon="4.87483">
        <ele>127</ele>
        <time>2013-04-24T11:36:38Z</time>
      </trkpt>
      <trkpt lat="44.97002" lon="4.87479">
        <ele>127</ele>
        <time>2013-04-24T11:36:36Z</time>
      </trkpt>
      <trkpt lat="44.97009" lon="4.87471">
        <ele>127</ele>
        <time>2013-04-24T11:36:34Z</time>
      </trkpt>
      <trkpt lat="44.97028" lon="4.8744">
        <ele>128</ele>
        <time>2013-04-24T11:36:28Z</time>
      </trkpt>
      <trkpt lat="44.97049" lon="4.87383">
        <ele>128</ele>
        <time>2013-04-24T11:36:17Z</time>
      </trkpt>
      <trkpt lat="44.97056" lon="4.87369">
        <ele>128</ele>
        <time>2013-04-24T11:36:12Z</time>
      </trkpt>
      <trkpt lat="44.97064" lon="4.87343">
        <ele>128</ele>
        <time>2013-04-24T11:36:05Z</time>
      </trkpt>
      <trkpt lat="44.97073" lon="4.87318">
        <ele>127</ele>
        <time>2013-04-24T11:36:00Z</time>
      </trkpt>
      <trkpt lat="44.97075" lon="4.87313">
        <ele>127</ele>
        <time>2013-04-24T11:35:59Z</time>
      </trkpt>
      <trkpt lat="44.97088" lon="4.87271">
        <ele>126</ele>
        <time>2013-04-24T11:35:52Z</time>
      </trkpt>
      <trkpt lat="44.97103" lon="4.87229">
        <ele>127</ele>
        <time>2013-04-24T11:35:45Z</time>
      </trkpt>
      <trkpt lat="44.9712" lon="4.87176">
        <ele>128</ele>
        <time>2013-04-24T11:35:36Z</time>
      </trkpt>
      <trkpt lat="44.97146" lon="4.87099">
        <ele>127</ele>
        <time>2013-04-24T11:35:22Z</time>
      </trkpt>
      <trkpt lat="44.97159" lon="4.87057">
        <ele>126</ele>
        <time>2013-04-24T11:35:15Z</time>
      </trkpt>
      <trkpt lat="44.9717" lon="4.87025">
        <ele>126</ele>
        <time>2013-04-24T11:35:09Z</time>
      </trkpt>
      <trkpt lat="44.97175" lon="4.87012">
        <ele>126</ele>
        <time>2013-04-24T11:35:07Z</time>
      </trkpt>
      <trkpt lat="44.9719" lon="4.86968">
        <ele>126</ele>
        <time>2013-04-24T11:35:00Z</time>
      </trkpt>
      <trkpt lat="44.97203" lon="4.86929">
        <ele>126</ele>
        <time>2013-04-24T11:34:54Z</time>
      </trkpt>
      <trkpt lat="44.97216" lon="4.86877">
        <ele>125</ele>
        <time>2013-04-24T11:34:46Z</time>
      </trkpt>
      <trkpt lat="44.97221" lon="4.86852">
        <ele>125</ele>
        <time>2013-04-24T11:34:42Z</time>
      </trkpt>
      <trkpt lat="44.97225" lon="4.86833">
        <ele>125</ele>
        <time>2013-04-24T11:34:39Z</time>
      </trkpt>
      <trkpt lat="44.9723" lon="4.86809">
        <ele>125</ele>
        <time>2013-04-24T11:34:35Z</time>
      </trkpt>
      <trkpt lat="44.97232" lon="4.86803">
        <ele>125</ele>
        <time>2013-04-24T11:34:34Z</time>
      </trkpt>
      <trkpt lat="44.9724" lon="4.86762">
        <ele>125</ele>
        <time>2013-04-24T11:34:27Z</time>
      </trkpt>
      <trkpt lat="44.9726" lon="4.86653">
        <ele>127</ele>
        <time>2013-04-24T11:34:03Z</time>
      </trkpt>
      <trkpt lat="44.97265" lon="4.8664">
        <ele>127</ele>
        <time>2013-04-24T11:33:59Z</time>
      </trkpt>
      <trkpt lat="44.97273" lon="4.86624">
        <ele>127</ele>
        <time>2013-04-24T11:33:52Z</time>
      </trkpt>
      <trkpt lat="44.97281" lon="4.866">
        <ele>127</ele>
        <time>2013-04-24T11:33:45Z</time>
      </trkpt>
      <trkpt lat="44.97312" lon="4.8645">
        <ele>123</ele>
        <time>2013-04-24T11:33:16Z</time>
      </trkpt>
      <trkpt lat="44.97322" lon="4.86406">
        <ele>122</ele>
        <time>2013-04-24T11:33:09Z</time>
      </trkpt>
      <trkpt lat="44.97334" lon="4.86345">
        <ele>122</ele>
        <time>2013-04-24T11:33:01Z</time>
      </trkpt>
      <trkpt lat="44.97351" lon="4.86279">
        <ele>121</ele>
        <time>2013-04-24T11:32:53Z</time>
      </trkpt>
      <trkpt lat="44.97366" lon="4.86232">
        <ele>120</ele>
        <time>2013-04-24T11:32:47Z</time>
      </trkpt>
      <trkpt lat="44.97385" lon="4.86198">
        <ele>120</ele>
        <time>2013-04-24T11:32:42Z</time>
      </trkpt>
      <trkpt lat="44.9739" lon="4.86192">
        <ele>120</ele>
        <time>2013-04-24T11:32:41Z</time>
      </trkpt>
      <trkpt lat="44.97394" lon="4.86186">
        <ele>120</ele>
        <time>2013-04-24T11:32:40Z</time>
      </trkpt>
      <trkpt lat="44.97414" lon="4.86167">
        <ele>120</ele>
        <time>2013-04-24T11:32:36Z</time>
      </trkpt>
      <trkpt lat="44.97429" lon="4.86146">
        <ele>120</ele>
        <time>2013-04-24T11:32:32Z</time>
      </trkpt>
      <trkpt lat="44.97421" lon="4.86108">
        <ele>119</ele>
        <time>2013-04-24T11:32:26Z</time>
      </trkpt>
      <trkpt lat="44.97404" lon="4.86053">
        <ele>116</ele>
        <time>2013-04-24T11:32:16Z</time>
      </trkpt>
      <trkpt lat="44.97397" lon="4.86029">
        <ele>114</ele>
        <time>2013-04-24T11:32:10Z</time>
      </trkpt>
      <trkpt lat="44.97419" lon="4.86012">
        <ele>114</ele>
        <time>2013-04-24T11:32:01Z</time>
      </trkpt>
      <trkpt lat="44.97456" lon="4.85989">
        <ele>115</ele>
        <time>2013-04-24T11:31:51Z</time>
      </trkpt>
      <trkpt lat="44.97495" lon="4.85964">
        <ele>116</ele>
        <time>2013-04-24T11:31:41Z</time>
      </trkpt>
      <trkpt lat="44.97523" lon="4.85948">
        <ele>118</ele>
        <time>2013-04-24T11:31:34Z</time>
      </trkpt>
      <trkpt lat="44.97619" lon="4.85898">
        <ele>116</ele>
        <time>2013-04-24T11:31:12Z</time>
      </trkpt>
      <trkpt lat="44.97653" lon="4.85883">
        <ele>116</ele>
        <time>2013-04-24T11:31:05Z</time>
      </trkpt>
      <trkpt lat="44.97693" lon="4.85868">
        <ele>116</ele>
        <time>2013-04-24T11:30:57Z</time>
      </trkpt>
      <trkpt lat="44.9774" lon="4.85855">
        <ele>117</ele>
        <time>2013-04-24T11:30:48Z</time>
      </trkpt>
      <trkpt lat="44.97782" lon="4.85845">
        <ele>117</ele>
        <time>2013-04-24T11:30:40Z</time>
      </trkpt>
      <trkpt lat="44.97818" lon="4.8584">
        <ele>116</ele>
        <time>2013-04-24T11:30:33Z</time>
      </trkpt>
      <trkpt lat="44.97928" lon="4.85832">
        <ele>113</ele>
        <time>2013-04-24T11:30:11Z</time>
      </trkpt>
      <trkpt lat="44.97972" lon="4.85835">
        <ele>114</ele>
        <time>2013-04-24T11:30:02Z</time>
      </trkpt>
      <trkpt lat="44.98003" lon="4.85838">
        <ele>113</ele>
        <time>2013-04-24T11:29:56Z</time>
      </trkpt>
      <trkpt lat="44.98013" lon="4.8584">
        <ele>113</ele>
        <time>2013-04-24T11:29:54Z</time>
      </trkpt>
      <trkpt lat="44.9806" lon="4.85851">
        <ele>114</ele>
        <time>2013-04-24T11:29:45Z</time>
      </trkpt>
      <trkpt lat="44.98107" lon="4.8587">
        <ele>113</ele>
        <time>2013-04-24T11:29:36Z</time>
      </trkpt>
      <trkpt lat="44.98142" lon="4.85889">
        <ele>113</ele>
        <time>2013-04-24T11:29:29Z</time>
      </trkpt>
      <trkpt lat="44.98171" lon="4.8591">
        <ele>113</ele>
        <time>2013-04-24T11:29:23Z</time>
      </trkpt>
      <trkpt lat="44.98199" lon="4.85934">
        <ele>114</ele>
        <time>2013-04-24T11:29:17Z</time>
      </trkpt>
      <trkpt lat="44.98229" lon="4.85965">
        <ele>114</ele>
        <time>2013-04-24T11:29:10Z</time>
      </trkpt>
      <trkpt lat="44.98263" lon="4.86005">
        <ele>114</ele>
        <time>2013-04-24T11:29:02Z</time>
      </trkpt>
      <trkpt lat="44.98286" lon="4.86038">
        <ele>114</ele>
        <time>2013-04-24T11:28:56Z</time>
      </trkpt>
      <trkpt lat="44.98315" lon="4.86087">
        <ele>115</ele>
        <time>2013-04-24T11:28:48Z</time>
      </trkpt>
      <trkpt lat="44.9834" lon="4.86139">
        <ele>114</ele>
        <time>2013-04-24T11:28:40Z</time>
      </trkpt>
      <trkpt lat="44.98363" lon="4.86194">
        <ele>115</ele>
        <time>2013-04-24T11:28:32Z</time>
      </trkpt>
      <trkpt lat="44.98386" lon="4.86246">
        <ele>114</ele>
        <time>2013-04-24T11:28:24Z</time>
      </trkpt>
      <trkpt lat="44.98407" lon="4.86291">
        <ele>115</ele>
        <time>2013-04-24T11:28:17Z</time>
      </trkpt>
      <trkpt lat="44.98443" lon="4.86365">
        <ele>114</ele>
        <time>2013-04-24T11:28:05Z</time>
      </trkpt>
      <trkpt lat="44.98471" lon="4.86414">
        <ele>113</ele>
        <time>2013-04-24T11:27:57Z</time>
      </trkpt>
      <trkpt lat="44.985" lon="4.86462">
        <ele>116</ele>
        <time>2013-04-24T11:27:49Z</time>
      </trkpt>
      <trkpt lat="44.9853" lon="4.86509">
        <ele>115</ele>
        <time>2013-04-24T11:27:41Z</time>
      </trkpt>
      <trkpt lat="44.98558" lon="4.86551">
        <ele>116</ele>
        <time>2013-04-24T11:27:34Z</time>
      </trkpt>
      <trkpt lat="44.98593" lon="4.86595">
        <ele>115</ele>
        <time>2013-04-24T11:27:26Z</time>
      </trkpt>
      <trkpt lat="44.98625" lon="4.86629">
        <ele>115</ele>
        <time>2013-04-24T11:27:19Z</time>
      </trkpt>
      <trkpt lat="44.98659" lon="4.86662">
        <ele>113</ele>
        <time>2013-04-24T11:27:12Z</time>
      </trkpt>
      <trkpt lat="44.98698" lon="4.86694">
        <ele>113</ele>
        <time>2013-04-24T11:27:04Z</time>
      </trkpt>
      <trkpt lat="44.98703" lon="4.86698">
        <ele>113</ele>
        <time>2013-04-24T11:27:03Z</time>
      </trkpt>
      <trkpt lat="44.98734" lon="4.86719">
        <ele>113</ele>
        <time>2013-04-24T11:26:57Z</time>
      </trkpt>
      <trkpt lat="44.98771" lon="4.86742">
        <ele>112</ele>
        <time>2013-04-24T11:26:50Z</time>
      </trkpt>
      <trkpt lat="44.98823" lon="4.86771">
        <ele>113</ele>
        <time>2013-04-24T11:26:40Z</time>
      </trkpt>
      <trkpt lat="44.98848" lon="4.86786">
        <ele>114</ele>
        <time>2013-04-24T11:26:35Z</time>
      </trkpt>
      <trkpt lat="44.98858" lon="4.86792">
        <ele>114</ele>
        <time>2013-04-24T11:26:33Z</time>
      </trkpt>
      <trkpt lat="44.98895" lon="4.86812">
        <ele>114</ele>
        <time>2013-04-24T11:26:26Z</time>
      </trkpt>
      <trkpt lat="44.98982" lon="4.86874">
        <ele>116</ele>
        <time>2013-04-24T11:26:10Z</time>
      </trkpt>
      <trkpt lat="44.99015" lon="4.86913">
        <ele>115</ele>
        <time>2013-04-24T11:26:03Z</time>
      </trkpt>
      <trkpt lat="44.99046" lon="4.86944">
        <ele>115</ele>
        <time>2013-04-24T11:25:57Z</time>
      </trkpt>
      <trkpt lat="44.99081" lon="4.86968">
        <ele>115</ele>
        <time>2013-04-24T11:25:51Z</time>
      </trkpt>
      <trkpt lat="44.99128" lon="4.86993">
        <ele>113</ele>
        <time>2013-04-24T11:25:43Z</time>
      </trkpt>
      <trkpt lat="44.99181" lon="4.87018">
        <ele>114</ele>
        <time>2013-04-24T11:25:34Z</time>
      </trkpt>
      <trkpt lat="44.99232" lon="4.87039">
        <ele>114</ele>
        <time>2013-04-24T11:25:26Z</time>
      </trkpt>
      <trkpt lat="44.99278" lon="4.87054">
        <ele>113</ele>
        <time>2013-04-24T11:25:19Z</time>
      </trkpt>
      <trkpt lat="44.99311" lon="4.87063">
        <ele>113</ele>
        <time>2013-04-24T11:25:14Z</time>
      </trkpt>
      <trkpt lat="44.99331" lon="4.87068">
        <ele>113</ele>
        <time>2013-04-24T11:25:11Z</time>
      </trkpt>
      <trkpt lat="44.99361" lon="4.87079">
        <ele>112</ele>
        <time>2013-04-24T11:25:06Z</time>
      </trkpt>
      <trkpt lat="44.99394" lon="4.87098">
        <ele>113</ele>
        <time>2013-04-24T11:25:00Z</time>
      </trkpt>
      <trkpt lat="44.99408" lon="4.87109">
        <ele>113</ele>
        <time>2013-04-24T11:24:57Z</time>
      </trkpt>
      <trkpt lat="44.99418" lon="4.87099">
        <ele>112</ele>
        <time>2013-04-24T11:24:54Z</time>
      </trkpt>
      <trkpt lat="44.99426" lon="4.87084">
        <ele>112</ele>
        <time>2013-04-24T11:24:51Z</time>
      </trkpt>
      <trkpt lat="44.99447" lon="4.87041">
        <ele>112</ele>
        <time>2013-04-24T11:24:43Z</time>
      </trkpt>
      <trkpt lat="44.99523" lon="4.8689">
        <ele>117</ele>
        <time>2013-04-24T11:22:36Z</time>
      </trkpt>
      <trkpt lat="44.9952" lon="4.86886">
        <ele>117</ele>
        <time>2013-04-24T11:22:34Z</time>
      </trkpt>
      <trkpt lat="44.99467" lon="4.8685">
        <ele>116</ele>
        <time>2013-04-24T11:22:20Z</time>
      </trkpt>
      <trkpt lat="44.99441" lon="4.8683">
        <ele>117</ele>
        <time>2013-04-24T11:22:14Z</time>
      </trkpt>
      <trkpt lat="44.99401" lon="4.86805">
        <ele>117</ele>
        <time>2013-04-24T11:22:05Z</time>
      </trkpt>
      <trkpt lat="44.99354" lon="4.86777">
        <ele>117</ele>
        <time>2013-04-24T11:21:56Z</time>
      </trkpt>
      <trkpt lat="44.99333" lon="4.86765">
        <ele>117</ele>
        <time>2013-04-24T11:21:52Z</time>
      </trkpt>
      <trkpt lat="44.99317" lon="4.86758">
        <ele>116</ele>
        <time>2013-04-24T11:21:49Z</time>
      </trkpt>
      <trkpt lat="44.99312" lon="4.86755">
        <ele>116</ele>
        <time>2013-04-24T11:21:48Z</time>
      </trkpt>
      <trkpt lat="44.99292" lon="4.86745">
        <ele>114</ele>
        <time>2013-04-24T11:21:44Z</time>
      </trkpt>
      <trkpt lat="44.99285" lon="4.86731">
        <ele>114</ele>
        <time>2013-04-24T11:21:41Z</time>
      </trkpt>
      <trkpt lat="44.99286" lon="4.86725">
        <ele>114</ele>
        <time>2013-04-24T11:21:40Z</time>
      </trkpt>
      <trkpt lat="44.99295" lon="4.86716">
        <ele>114</ele>
        <time>2013-04-24T11:21:37Z</time>
      </trkpt>
      <trkpt lat="44.99299" lon="4.86715">
        <ele>114</ele>
        <time>2013-04-24T11:21:35Z</time>
      </trkpt>
      <trkpt lat="44.993" lon="4.86714">
        <ele>114</ele>
        <time>2013-04-24T11:21:33Z</time>
      </trkpt>
      <trkpt lat="44.99299" lon="4.86714">
        <ele>114</ele>
        <time>2013-04-24T11:21:16Z</time>
      </trkpt>
      <trkpt lat="44.99299" lon="4.86714">
        <ele>114</ele>
        <time>2013-04-24T11:20:58Z</time>
      </trkpt>
      <trkpt lat="44.99299" lon="4.86714">
        <ele>114</ele>
        <time>2013-04-24T11:20:46Z</time>
      </trkpt>
      <trkpt lat="44.99304" lon="4.86712">
        <ele>114</ele>
        <time>2013-04-24T11:20:42Z</time>
      </trkpt>
      <trkpt lat="44.99324" lon="4.86701">
        <ele>114</ele>
        <time>2013-04-24T11:20:36Z</time>
      </trkpt>
      <trkpt lat="44.99365" lon="4.86678">
        <ele>115</ele>
        <time>2013-04-24T11:20:27Z</time>
      </trkpt>
      <trkpt lat="44.99369" lon="4.86675">
        <ele>115</ele>
        <time>2013-04-24T11:20:26Z</time>
      </trkpt>
      <trkpt lat="44.99393" lon="4.86663">
        <ele>114</ele>
        <time>2013-04-24T11:20:21Z</time>
      </trkpt>
      <trkpt lat="44.99435" lon="4.8664">
        <ele>114</ele>
        <time>2013-04-24T11:20:12Z</time>
      </trkpt>
      <trkpt lat="44.99454" lon="4.86628">
        <ele>114</ele>
        <time>2013-04-24T11:20:08Z</time>
      </trkpt>
      <trkpt lat="44.99463" lon="4.86623">
        <ele>114</ele>
        <time>2013-04-24T11:20:06Z</time>
      </trkpt>
      <trkpt lat="44.99501" lon="4.86601">
        <ele>113</ele>
        <time>2013-04-24T11:19:58Z</time>
      </trkpt>
      <trkpt lat="44.99506" lon="4.86599">
        <ele>113</ele>
        <time>2013-04-24T11:19:57Z</time>
      </trkpt>
      <trkpt lat="44.9952" lon="4.86591">
        <ele>113</ele>
        <time>2013-04-24T11:19:54Z</time>
      </trkpt>
      <trkpt lat="44.99525" lon="4.86589">
        <ele>114</ele>
        <time>2013-04-24T11:19:53Z</time>
      </trkpt>
      <trkpt lat="44.9954" lon="4.8658">
        <ele>113</ele>
        <time>2013-04-24T11:19:50Z</time>
      </trkpt>
      <trkpt lat="44.99554" lon="4.86572">
        <ele>113</ele>
        <time>2013-04-24T11:19:45Z</time>
      </trkpt>
      <trkpt lat="44.99622" lon="4.86534">
        <ele>115</ele>
        <time>2013-04-24T11:19:33Z</time>
      </trkpt>
      <trkpt lat="44.99666" lon="4.86509">
        <ele>116</ele>
        <time>2013-04-24T11:19:25Z</time>
      </trkpt>
      <trkpt lat="44.99699" lon="4.86489">
        <ele>115</ele>
        <time>2013-04-24T11:19:19Z</time>
      </trkpt>
      <trkpt lat="44.99737" lon="4.86467">
        <ele>114</ele>
        <time>2013-04-24T11:19:12Z</time>
      </trkpt>
      <trkpt lat="44.99742" lon="4.86464">
        <ele>114</ele>
        <time>2013-04-24T11:19:11Z</time>
      </trkpt>
      <trkpt lat="45.0002" lon="4.86312">
        <ele>117</ele>
        <time>2013-04-24T09:50:00Z</time>
      </trkpt>
      <trkpt lat="45.0005" lon="4.86295">
        <ele>117</ele>
        <time>2013-04-24T09:49:52Z</time>
      </trkpt>
      <trkpt lat="45.00085" lon="4.86273">
        <ele>118</ele>
        <time>2013-04-24T09:49:44Z</time>
      </trkpt>
      <trkpt lat="45.00115" lon="4.86256">
        <ele>119</ele>
        <time>2013-04-24T09:49:37Z</time>
      </trkpt>
      <trkpt lat="45.00154" lon="4.86234">
        <ele>117</ele>
        <time>2013-04-24T09:49:29Z</time>
      </trkpt>
      <trkpt lat="45.0022" lon="4.86198">
        <ele>117</ele>
        <time>2013-04-24T09:49:15Z</time>
      </trkpt>
      <trkpt lat="45.00261" lon="4.86174">
        <ele>119</ele>
        <time>2013-04-24T09:49:07Z</time>
      </trkpt>
      <trkpt lat="45.00298" lon="4.86154">
        <ele>116</ele>
        <time>2013-04-24T09:49:00Z</time>
      </trkpt>
      <trkpt lat="45.00345" lon="4.86127">
        <ele>117</ele>
        <time>2013-04-24T09:48:51Z</time>
      </trkpt>
      <trkpt lat="45.00391" lon="4.861">
        <ele>118</ele>
        <time>2013-04-24T09:48:42Z</time>
      </trkpt>
      <trkpt lat="45.00436" lon="4.86076">
        <ele>118</ele>
        <time>2013-04-24T09:48:33Z</time>
      </trkpt>
      <trkpt lat="45.0054" lon="4.86016">
        <ele>118</ele>
        <time>2013-04-24T09:48:11Z</time>
      </trkpt>
      <trkpt lat="45.00588" lon="4.8599">
        <ele>119</ele>
        <time>2013-04-24T09:48:01Z</time>
      </trkpt>
      <trkpt lat="45.00641" lon="4.85959">
        <ele>118</ele>
        <time>2013-04-24T09:47:50Z</time>
      </trkpt>
      <trkpt lat="45.00683" lon="4.85933">
        <ele>119</ele>
        <time>2013-04-24T09:47:41Z</time>
      </trkpt>
      <trkpt lat="45.00701" lon="4.85923">
        <ele>120</ele>
        <time>2013-04-24T09:47:37Z</time>
      </trkpt>
      <trkpt lat="45.00728" lon="4.85908">
        <ele>117</ele>
        <time>2013-04-24T09:47:31Z</time>
      </trkpt>
      <trkpt lat="45.00765" lon="4.85887">
        <ele>118</ele>
        <time>2013-04-24T09:47:23Z</time>
      </trkpt>
      <trkpt lat="45.00833" lon="4.85849">
        <ele>118</ele>
        <time>2013-04-24T09:47:09Z</time>
      </trkpt>
      <trkpt lat="45.00872" lon="4.85827">
        <ele>116</ele>
        <time>2013-04-24T09:47:01Z</time>
      </trkpt>
      <trkpt lat="45.00915" lon="4.85802">
        <ele>115</ele>
        <time>2013-04-24T09:46:52Z</time>
      </trkpt>
      <trkpt lat="45.00949" lon="4.85783">
        <ele>117</ele>
        <time>2013-04-24T09:46:45Z</time>
      </trkpt>
      <trkpt lat="45.00991" lon="4.85759">
        <ele>118</ele>
        <time>2013-04-24T09:46:36Z</time>
      </trkpt>
      <trkpt lat="45.01028" lon="4.85737">
        <ele>118</ele>
        <time>2013-04-24T09:46:28Z</time>
      </trkpt>
      <trkpt lat="45.01061" lon="4.85718">
        <ele>119</ele>
        <time>2013-04-24T09:46:21Z</time>
      </trkpt>
      <trkpt lat="45.01097" lon="4.85698">
        <ele>121</ele>
        <time>2013-04-24T09:46:13Z</time>
      </trkpt>
      <trkpt lat="45.01138" lon="4.85674">
        <ele>120</ele>
        <time>2013-04-24T09:46:04Z</time>
      </trkpt>
      <trkpt lat="45.01168" lon="4.85657">
        <ele>119</ele>
        <time>2013-04-24T09:45:57Z</time>
      </trkpt>
      <trkpt lat="45.01204" lon="4.85637">
        <ele>117</ele>
        <time>2013-04-24T09:45:49Z</time>
      </trkpt>
      <trkpt lat="45.01244" lon="4.85615">
        <ele>115</ele>
        <time>2013-04-24T09:45:40Z</time>
      </trkpt>
      <trkpt lat="45.01274" lon="4.85598">
        <ele>117</ele>
        <time>2013-04-24T09:43:51Z</time>
      </trkpt>
      <trkpt lat="45.01299" lon="4.85582">
        <ele>115</ele>
        <time>2013-04-24T09:43:44Z</time>
      </trkpt>
      <trkpt lat="45.01327" lon="4.85566">
        <ele>117</ele>
        <time>2013-04-24T09:43:36Z</time>
      </trkpt>
      <trkpt lat="45.0136" lon="4.85547">
        <ele>117</ele>
        <time>2013-04-24T09:43:27Z</time>
      </trkpt>
      <trkpt lat="45.01379" lon="4.85534">
        <ele>116</ele>
        <time>2013-04-24T09:43:21Z</time>
      </trkpt>
      <trkpt lat="45.01407" lon="4.85515">
        <ele>114</ele>
        <time>2013-04-24T09:43:13Z</time>
      </trkpt>
      <trkpt lat="45.01443" lon="4.85487">
        <ele>114</ele>
        <time>2013-04-24T09:43:04Z</time>
      </trkpt>
      <trkpt lat="45.0147" lon="4.85468">
        <ele>115</ele>
        <time>2013-04-24T09:42:57Z</time>
      </trkpt>
      <trkpt lat="45.01487" lon="4.85451">
        <ele>114</ele>
      </trkpt>
      <trkpt lat="45.01472" lon="4.8541">
        <ele>112</ele>
      </trkpt>
      <trkpt lat="45.01433" lon="4.85313">
        <ele>113</ele>
      </trkpt>
      <trkpt lat="45.01396" lon="4.85219">
        <ele>120</ele>
      </trkpt>
      <trkpt lat="45.01374" lon="4.85157">
        <ele>119</ele>
      </trkpt>
      <trkpt lat="45.01342" lon="4.85072">
        <ele>119</ele>
      </trkpt>
      <trkpt lat="45.01311" lon="4.84958">
        <ele>119</ele>
      </trkpt>
      <trkpt lat="45.01291" lon="4.84887">
        <ele>118</ele>
      </trkpt>
      <trkpt lat="45.01274" lon="4.84833">
        <ele>119</ele>
      </trkpt>
      <trkpt lat="45.01255" lon="4.84793">
        <ele>119</ele>
      </trkpt>
      <trkpt lat="45.01227" lon="4.84758">
        <ele>119</ele>
      </trkpt>
      <trkpt lat="45.01197" lon="4.84724">
        <ele>119</ele>
      </trkpt>
      <trkpt lat="45.01154" lon="4.8467">
        <ele>118</ele>
      </trkpt>
      <trkpt lat="45.01109" lon="4.84614">
        <ele>118</ele>
      </trkpt>
      <trkpt lat="45.01091" lon="4.84581">
        <ele>118</ele>
      </trkpt>
      <trkpt lat="45.01081" lon="4.84553">
        <ele>117</ele>
      </trkpt>
      <trkpt lat="45.01074" lon="4.84528">
        <ele>116</ele>
      </trkpt>
      <trkpt lat="45.01072" lon="4.84495">
        <ele>115</ele>
      </trkpt>
      <trkpt lat="45.01072" lon="4.84431">
        <ele>115</ele>
      </trkpt>
      <trkpt lat="45.01076" lon="4.84371">
        <ele>115</ele>
      </trkpt>
      <trkpt lat="45.01079" lon="4.84301">
        <ele>117</ele>
      </trkpt>
      <trkpt lat="45.01077" lon="4.84256">
        <ele>118</ele>
      </trkpt>
      <trkpt lat="45.01075" lon="4.84231">
        <ele>117</ele>
      </trkpt>
      <trkpt lat="45.01074" lon="4.84209">
        <ele>117</ele>
      </trkpt>
      <trkpt lat="45.01074" lon="4.84186">
        <ele>116</ele>
      </trkpt>
      <trkpt lat="45.01067" lon="4.84165">
        <ele>116</ele>
      </trkpt>
      <trkpt lat="45.01056" lon="4.84153">
        <ele>116</ele>
      </trkpt>
      <trkpt lat="45.01045" lon="4.8415">
        <ele>117</ele>
      </trkpt>
      <trkpt lat="45.01029" lon="4.84149">
        <ele>117</ele>
      </trkpt>
      <trkpt lat="45.01015" lon="4.84137">
        <ele>117</ele>
      </trkpt>
      <trkpt lat="45.01009" lon="4.84107">
        <ele>117</ele>
      </trkpt>
      <trkpt lat="45.01017" lon="4.84044">
        <ele>115</ele>
      </trkpt>
      <trkpt lat="45.01033" lon="4.83946">
        <ele>112</ele>
      </trkpt>
      <trkpt lat="45.01049" lon="4.8385">
        <ele>111</ele>
      </trkpt>
      <trkpt lat="45.01066" lon="4.83758">
        <ele>111</ele>
      </trkpt>
      <trkpt lat="45.01092" lon="4.83704">
        <ele>111</ele>
      </trkpt>
      <trkpt lat="45.0112" lon="4.83668">
        <ele>111</ele>
      </trkpt>
      <trkpt lat="45.0112" lon="4.83668">
        <ele>111</ele>
      </trkpt>
      <trkpt lat="45.0114" lon="4.83629">
        <ele>112</ele>
      </trkpt>
      <trkpt lat="45.01165" lon="4.83594">
        <ele>113</ele>
      </trkpt>
      <trkpt lat="45.01184" lon="4.83581">
        <ele>114</ele>
      </trkpt>
      <trkpt lat="45.01197" lon="4.8358">
        <ele>114</ele>
      </trkpt>
      <trkpt lat="45.01212" lon="4.83582">
        <ele>114</ele>
      </trkpt>
      <trkpt lat="45.01231" lon="4.83592">
        <ele>113</ele>
      </trkpt>
      <trkpt lat="45.01241" lon="4.83602">
        <ele>113</ele>
      </trkpt>
      <trkpt lat="45.01269" lon="4.8363">
        <ele>114</ele>
      </trkpt>
      <trkpt lat="45.01314" lon="4.83688">
        <ele>116</ele>
      </trkpt>
      <trkpt lat="45.01325" lon="4.83703">
        <ele>116</ele>
      </trkpt>
      <trkpt lat="45.01334" lon="4.83718">
        <ele>118</ele>
      </trkpt>
      <trkpt lat="45.01362" lon="4.83783">
        <ele>116</ele>
      </trkpt>
      <trkpt lat="45.01409" lon="4.83888">
        <ele>115</ele>
      </trkpt>
      <trkpt lat="45.0143" lon="4.83924">
        <ele>116</ele>
      </trkpt>
      <trkpt lat="45.01457" lon="4.83965">
        <ele>115</ele>
      </trkpt>
      <trkpt lat="45.01503" lon="4.83996">
        <ele>116</ele>
      </trkpt>
      <trkpt lat="45.01511" lon="4.84001">
        <ele>116</ele>
      </trkpt>
      <trkpt lat="45.01511" lon="4.84001">
        <ele>116</ele>
      </trkpt>
      <trkpt lat="45.01521" lon="4.84015">
        <ele>115</ele>
      </trkpt>
      <trkpt lat="45.0156" lon="4.84062">
        <ele>115</ele>
      </trkpt>
      <trkpt lat="45.01575" lon="4.84079">
        <ele>116</ele>
      </trkpt>
      <trkpt lat="45.01594" lon="4.84084">
        <ele>115</ele>
      </trkpt>
      <trkpt lat="45.01613" lon="4.84091">
        <ele>115</ele>
      </trkpt>
      <trkpt lat="45.01626" lon="4.84098">
        <ele>114</ele>
      </trkpt>
      <trkpt lat="45.01626" lon="4.84098">
        <ele>114</ele>
      </trkpt>
      <trkpt lat="45.01636" lon="4.84108">
        <ele>114</ele>
      </trkpt>
      <trkpt lat="45.01642" lon="4.84119">
        <ele>114</ele>
      </trkpt>
      <trkpt lat="45.01671" lon="4.84153">
        <ele>115</ele>
      </trkpt>
      <trkpt lat="45.01717" lon="4.84196">
        <ele>114</ele>
      </trkpt>
      <trkpt lat="45.01762" lon="4.84232">
        <ele>114</ele>
      </trkpt>
      <trkpt lat="45.01808" lon="4.84256">
        <ele>113</ele>
      </trkpt>
      <trkpt lat="45.01881" lon="4.84288">
        <ele>115</ele>
      </trkpt>
      <trkpt lat="45.01941" lon="4.84299">
        <ele>115</ele>
      </trkpt>
      <trkpt lat="45.02012" lon="4.84303">
        <ele>117</ele>
      </trkpt>
      <trkpt lat="45.02061" lon="4.843">
        <ele>117</ele>
      </trkpt>
      <trkpt lat="45.02093" lon="4.84293">
        <ele>116</ele>
      </trkpt>
      <trkpt lat="45.02142" lon="4.84272">
        <ele>115</ele>
      </trkpt>
      <trkpt lat="45.02192" lon="4.84249">
        <ele>114</ele>
      </trkpt>
      <trkpt lat="45.02242" lon="4.84217">
        <ele>114</ele>
      </trkpt>
      <trkpt lat="45.02286" lon="4.84181">
        <ele>114</ele>
      </trkpt>
      <trkpt lat="45.02352" lon="4.84109">
        <ele>115</ele>
      </trkpt>
      <trkpt lat="45.02391" lon="4.84056">
        <ele>115</ele>
      </trkpt>
      <trkpt lat="45.02446" lon="4.83984">
        <ele>115</ele>
      </trkpt>
      <trkpt lat="45.02506" lon="4.83912">
        <ele>114</ele>
      </trkpt>
      <trkpt lat="45.02561" lon="4.83849">
        <ele>114</ele>
      </trkpt>
      <trkpt lat="45.02615" lon="4.83798">
        <ele>115</ele>
      </trkpt>
      <trkpt lat="45.02653" lon="4.83763">
        <ele>116</ele>
      </trkpt>
      <trkpt lat="45.02683" lon="4.83743">
        <ele>116</ele>
      </trkpt>
      <trkpt lat="45.02704" lon="4.83726">
        <ele>117</ele>
      </trkpt>
      <trkpt lat="45.02719" lon="4.83707">
        <ele>117</ele>
      </trkpt>
      <trkpt lat="45.02769" lon="4.83672">
        <ele>117</ele>
      </trkpt>
      <trkpt lat="45.02818" lon="4.83648">
        <ele>118</ele>
      </trkpt>
      <trkpt lat="45.02921" lon="4.83609">
        <ele>117</ele>
      </trkpt>
      <trkpt lat="45.03059" lon="4.83579">
        <ele>117</ele>
      </trkpt>
      <trkpt lat="45.03173" lon="4.8357">
        <ele>116</ele>
      </trkpt>
      <trkpt lat="45.0323" lon="4.83574">
        <ele>116</ele>
      </trkpt>
      <trkpt lat="45.03271" lon="4.83581">
        <ele>116</ele>
      </trkpt>
      <trkpt lat="45.03504" lon="4.83669">
        <ele>117</ele>
      </trkpt>
      <trkpt lat="45.03548" lon="4.83689">
        <ele>117</ele>
      </trkpt>
      <trkpt lat="45.03575" lon="4.83705">
        <ele>116</ele>
      </trkpt>
      <trkpt lat="45.03643" lon="4.83752">
        <ele>115</ele>
      </trkpt>
      <trkpt lat="45.03701" lon="4.83792">
        <ele>116</ele>
      </trkpt>
      <trkpt lat="45.03729" lon="4.83817">
        <ele>117</ele>
      </trkpt>
      <trkpt lat="45.04086" lon="4.84162">
        <ele>116</ele>
      </trkpt>
      <trkpt lat="45.04197" lon="4.8427">
        <ele>116</ele>
      </trkpt>
      <trkpt lat="45.04289" lon="4.84359">
        <ele>117</ele>
      </trkpt>
      <trkpt lat="45.043" lon="4.84371">
        <ele>117</ele>
      </trkpt>
      <trkpt lat="45.04301" lon="4.84378">
        <ele>117</ele>
      </trkpt>
      <trkpt lat="45.04297" lon="4.84386">
        <ele>117</ele>
      </trkpt>
      <trkpt lat="45.04287" lon="4.84406">
        <ele>117</ele>
      </trkpt>
      <trkpt lat="45.04278" lon="4.84425">
        <ele>117</ele>
      </trkpt>
      <trkpt lat="45.04278" lon="4.84434">
        <ele>117</ele>
      </trkpt>
      <trkpt lat="45.0428" lon="4.84439">
        <ele>117</ele>
      </trkpt>
      <trkpt lat="45.04285" lon="4.84444">
        <ele>117</ele>
      </trkpt>
      <trkpt lat="45.04346" lon="4.84511">
        <ele>121</ele>
      </trkpt>
      <trkpt lat="45.0439" lon="4.84565">
        <ele>122</ele>
      </trkpt>
      <trkpt lat="45.04439" lon="4.84631">
        <ele>117</ele>
      </trkpt>
      <trkpt lat="45.04475" lon="4.84686">
        <ele>115</ele>
      </trkpt>
      <trkpt lat="45.04553" lon="4.84797">
        <ele>114</ele>
      </trkpt>
      <trkpt lat="45.04635" lon="4.84902">
        <ele>116</ele>
      </trkpt>
      <trkpt lat="45.04727" lon="4.85004">
        <ele>116</ele>
      </trkpt>
      <trkpt lat="45.0507" lon="4.85376">
        <ele>120</ele>
      </trkpt>
      <trkpt lat="45.05147" lon="4.85457">
        <ele>120</ele>
      </trkpt>
      <trkpt lat="45.05242" lon="4.85539">
        <ele>118</ele>
      </trkpt>
      <trkpt lat="45.05331" lon="4.85601">
        <ele>118</ele>
      </trkpt>
      <trkpt lat="45.05411" lon="4.85647">
        <ele>116</ele>
      </trkpt>
      <trkpt lat="45.05485" lon="4.85681">
        <ele>119</ele>
      </trkpt>
      <trkpt lat="45.05591" lon="4.85713">
        <ele>118</ele>
      </trkpt>
      <trkpt lat="45.05659" lon="4.8573">
        <ele>116</ele>
      </trkpt>
      <trkpt lat="45.05746" lon="4.8574">
        <ele>116</ele>
      </trkpt>
      <trkpt lat="45.058" lon="4.85736">
        <ele>116</ele>
      </trkpt>
      <trkpt lat="45.05843" lon="4.85726">
        <ele>116</ele>
      </trkpt>
      <trkpt lat="45.05887" lon="4.85709">
        <ele>117</ele>
      </trkpt>
      <trkpt lat="45.05937" lon="4.85683">
        <ele>116</ele>
      </trkpt>
      <trkpt lat="45.0599" lon="4.85647">
        <ele>116</ele>
      </trkpt>
      <trkpt lat="45.06035" lon="4.85598">
        <ele>116</ele>
      </trkpt>
      <trkpt lat="45.06061" lon="4.85565">
        <ele>116</ele>
      </trkpt>
      <trkpt lat="45.06116" lon="4.85486">
        <ele>117</ele>
      </trkpt>
      <trkpt lat="45.062" lon="4.85344">
        <ele>117</ele>
      </trkpt>
      <trkpt lat="45.06242" lon="4.85255">
        <ele>119</ele>
      </trkpt>
      <trkpt lat="45.06267" lon="4.85199">
        <ele>116</ele>
      </trkpt>
      <trkpt lat="45.06296" lon="4.85124">
        <ele>117</ele>
      </trkpt>
      <trkpt lat="45.06311" lon="4.85077">
        <ele>119</ele>
      </trkpt>
      <trkpt lat="45.06311" lon="4.85077">
        <ele>119</ele>
      </trkpt>
      <trkpt lat="45.06335" lon="4.85003">
        <ele>120</ele>
      </trkpt>
      <trkpt lat="45.06369" lon="4.84875">
        <ele>117</ele>
      </trkpt>
      <trkpt lat="45.06388" lon="4.848">
        <ele>119</ele>
      </trkpt>
      <trkpt lat="45.06404" lon="4.84737">
        <ele>121</ele>
      </trkpt>
      <trkpt lat="45.0642" lon="4.84671">
        <ele>120</ele>
      </trkpt>
      <trkpt lat="45.06431" lon="4.84615">
        <ele>118</ele>
      </trkpt>
      <trkpt lat="45.06446" lon="4.84539">
        <ele>117</ele>
      </trkpt>
      <trkpt lat="45.06456" lon="4.84484">
        <ele>117</ele>
      </trkpt>
      <trkpt lat="45.0646" lon="4.84426">
        <ele>117</ele>
      </trkpt>
      <trkpt lat="45.0647" lon="4.84369">
        <ele>116</ele>
      </trkpt>
      <trkpt lat="45.065" lon="4.84241">
        <ele>119</ele>
      </trkpt>
      <trkpt lat="45.06524" lon="4.84146">
        <ele>119</ele>
      </trkpt>
      <trkpt lat="45.06539" lon="4.84086">
        <ele>118</ele>
      </trkpt>
      <trkpt lat="45.06547" lon="4.8405">
        <ele>118</ele>
      </trkpt>
      <trkpt lat="45.06544" lon="4.84034">
        <ele>118</ele>
      </trkpt>
      <trkpt lat="45.06537" lon="4.84023">
        <ele>118</ele>
      </trkpt>
      <trkpt lat="45.06537" lon="4.84023">
        <ele>118</ele>
      </trkpt>
      <trkpt lat="45.06538" lon="4.84002">
        <ele>119</ele>
      </trkpt>
      <trkpt lat="45.06545" lon="4.8398">
        <ele>119</ele>
      </trkpt>
      <trkpt lat="45.06553" lon="4.83963">
        <ele>118</ele>
      </trkpt>
      <trkpt lat="45.06569" lon="4.83943">
        <ele>118</ele>
      </trkpt>
      <trkpt lat="45.06591" lon="4.83889">
        <ele>117</ele>
      </trkpt>
      <trkpt lat="45.06686" lon="4.83671">
        <ele>120</ele>
      </trkpt>
      <trkpt lat="45.06697" lon="4.83647">
        <ele>121</ele>
      </trkpt>
      <trkpt lat="45.06777" lon="4.83463">
        <ele>124</ele>
      </trkpt>
    </trkseg>
  </trk>
</gpx>